sensor_id;sensor_type;location;lat;lon;timestamp;temperature;humidity
27803;DHT22;15182;48.174;11.562;2023-09-19T00:00:43;22.00;93.20
27803;DHT22;15182;48.174;11.562;2023-09-19T00:03:14;22.00;93.20
27803;DHT22;15182;48.174;11.562;2023-09-19T00:05:42;22.00;93.10
27803;DHT22;15182;48.174;11.562;2023-09-19T00:08:10;22.00;93.10
27803;DHT22;15182;48.174;11.562;2023-09-19T00:10:39;22.00;93.10
27803;DHT22;15182;48.174;11.562;2023-09-19T00:13:08;22.00;93.10
27803;DHT22;15182;48.174;11.562;2023-09-19T00:15:40;22.00;93.00
27803;DHT22;15182;48.174;11.562;2023-09-19T00:18:16;22.00;92.90
27803;DHT22;15182;48.174;11.562;2023-09-19T00:20:45;22.10;92.80
27803;DHT22;15182;48.174;11.562;2023-09-19T00:23:14;22.10;92.80
27803;DHT22;15182;48.174;11.562;2023-09-19T00:25:41;22.10;92.70
27803;DHT22;15182;48.174;11.562;2023-09-19T00:28:09;22.10;92.70
27803;DHT22;15182;48.174;11.562;2023-09-19T00:30:37;22.10;92.60
27803;DHT22;15182;48.174;11.562;2023-09-19T00:33:06;22.10;92.70
27803;DHT22;15182;48.174;11.562;2023-09-19T00:35:35;22.10;92.70
27803;DHT22;15182;48.174;11.562;2023-09-19T00:38:03;22.10;92.70
27803;DHT22;15182;48.174;11.562;2023-09-19T00:40:33;22.10;92.70
27803;DHT22;15182;48.174;11.562;2023-09-19T00:43:01;22.20;92.70
27803;DHT22;15182;48.174;11.562;2023-09-19T00:45:29;22.20;92.70
27803;DHT22;15182;48.174;11.562;2023-09-19T00:48:01;22.20;92.80
27803;DHT22;15182;48.174;11.562;2023-09-19T00:50:41;22.20;92.80
27803;DHT22;15182;48.174;11.562;2023-09-19T00:53:12;22.20;92.70
27803;DHT22;15182;48.174;11.562;2023-09-19T00:55:42;22.20;92.70
27803;DHT22;15182;48.174;11.562;2023-09-19T00:58:10;22.20;92.70
27803;DHT22;15182;48.174;11.562;2023-09-19T01:00:38;22.20;92.70
27803;DHT22;15182;48.174;11.562;2023-09-19T01:03:11;22.20;92.60
27803;DHT22;15182;48.174;11.562;2023-09-19T01:05:42;22.20;92.50
27803;DHT22;15182;48.174;11.562;2023-09-19T01:08:10;22.20;92.60
27803;DHT22;15182;48.174;11.562;2023-09-19T01:10:55;22.20;92.60
27803;DHT22;15182;48.174;11.562;2023-09-19T01:13:30;22.20;92.60
27803;DHT22;15182;48.174;11.562;2023-09-19T01:16:07;22.20;92.60
27803;DHT22;15182;48.174;11.562;2023-09-19T01:18:48;22.20;92.70
27803;DHT22;15182;48.174;11.562;2023-09-19T01:21:27;22.10;93.00
27803;DHT22;15182;48.174;11.562;2023-09-19T01:24:23;22.10;92.70
27803;DHT22;15182;48.174;11.562;2023-09-19T01:30:08;22.10;92.80
27803;DHT22;15182;48.174;11.562;2023-09-19T01:32:38;22.10;92.80
27803;DHT22;15182;48.174;11.562;2023-09-19T01:35:07;22.00;92.90
27803;DHT22;15182;48.174;11.562;2023-09-19T01:37:39;22.00;92.90
27803;DHT22;15182;48.174;11.562;2023-09-19T01:40:11;22.00;93.00
27803;DHT22;15182;48.174;11.562;2023-09-19T01:42:45;22.00;93.00
27803;DHT22;15182;48.174;11.562;2023-09-19T01:45:26;21.90;93.10
27803;DHT22;15182;48.174;11.562;2023-09-19T01:48:09;21.90;93.20
27803;DHT22;15182;48.174;11.562;2023-09-19T01:50:56;21.90;93.20
27803;DHT22;15182;48.174;11.562;2023-09-19T01:53:30;21.90;93.20
27803;DHT22;15182;48.174;11.562;2023-09-19T01:56:02;21.90;93.20
27803;DHT22;15182;48.174;11.562;2023-09-19T01:58:37;21.80;93.20
27803;DHT22;15182;48.174;11.562;2023-09-19T02:01:13;21.80;93.30
27803;DHT22;15182;48.174;11.562;2023-09-19T02:03:46;21.80;93.30
27803;DHT22;15182;48.174;11.562;2023-09-19T02:06:15;21.80;93.30
27803;DHT22;15182;48.174;11.562;2023-09-19T02:08:45;21.80;93.20
27803;DHT22;15182;48.174;11.562;2023-09-19T02:11:14;21.80;93.20
27803;DHT22;15182;48.174;11.562;2023-09-19T02:13:42;21.80;93.20
27803;DHT22;15182;48.174;11.562;2023-09-19T02:16:14;21.70;93.20
27803;DHT22;15182;48.174;11.562;2023-09-19T02:18:47;21.70;93.20
27803;DHT22;15182;48.174;11.562;2023-09-19T02:21:16;21.70;93.20
27803;DHT22;15182;48.174;11.562;2023-09-19T02:23:44;21.70;93.20
27803;DHT22;15182;48.174;11.562;2023-09-19T02:26:13;21.70;93.30
27803;DHT22;15182;48.174;11.562;2023-09-19T02:28:42;21.70;93.20
27803;DHT22;15182;48.174;11.562;2023-09-19T02:31:13;21.70;93.30
27803;DHT22;15182;48.174;11.562;2023-09-19T02:33:42;21.70;93.20
27803;DHT22;15182;48.174;11.562;2023-09-19T02:36:12;21.70;93.20
27803;DHT22;15182;48.174;11.562;2023-09-19T02:38:43;21.60;93.30
27803;DHT22;15182;48.174;11.562;2023-09-19T02:41:11;21.70;93.30
27803;DHT22;15182;48.174;11.562;2023-09-19T02:43:39;21.60;93.30
27803;DHT22;15182;48.174;11.562;2023-09-19T02:46:09;21.60;93.30
27803;DHT22;15182;48.174;11.562;2023-09-19T02:48:41;21.60;93.40
27803;DHT22;15182;48.174;11.562;2023-09-19T02:51:09;21.60;93.40
27803;DHT22;15182;48.174;11.562;2023-09-19T02:53:37;21.60;93.40
27803;DHT22;15182;48.174;11.562;2023-09-19T02:56:05;21.60;93.40
27803;DHT22;15182;48.174;11.562;2023-09-19T02:58:33;21.60;93.50
27803;DHT22;15182;48.174;11.562;2023-09-19T03:01:08;21.60;93.50
27803;DHT22;15182;48.174;11.562;2023-09-19T03:03:38;21.60;93.50
27803;DHT22;15182;48.174;11.562;2023-09-19T03:06:08;21.60;93.40
27803;DHT22;15182;48.174;11.562;2023-09-19T03:08:36;21.60;93.40
27803;DHT22;15182;48.174;11.562;2023-09-19T03:11:05;21.60;93.50
27803;DHT22;15182;48.174;11.562;2023-09-19T03:13:39;21.60;93.50
27803;DHT22;15182;48.174;11.562;2023-09-19T03:16:08;21.60;93.50
27803;DHT22;15182;48.174;11.562;2023-09-19T03:18:37;21.60;93.50
27803;DHT22;15182;48.174;11.562;2023-09-19T03:21:05;21.60;93.80
27803;DHT22;15182;48.174;11.562;2023-09-19T03:23:34;21.60;93.50
27803;DHT22;15182;48.174;11.562;2023-09-19T03:26:02;21.60;93.50
27803;DHT22;15182;48.174;11.562;2023-09-19T03:28:33;21.50;93.40
27803;DHT22;15182;48.174;11.562;2023-09-19T03:31:02;21.50;93.40
27803;DHT22;15182;48.174;11.562;2023-09-19T03:33:33;21.50;93.50
27803;DHT22;15182;48.174;11.562;2023-09-19T03:36:03;21.50;93.40
27803;DHT22;15182;48.174;11.562;2023-09-19T03:38:34;21.40;93.40
27803;DHT22;15182;48.174;11.562;2023-09-19T03:41:07;21.40;93.40
27803;DHT22;15182;48.174;11.562;2023-09-19T03:43:36;21.40;93.50
27803;DHT22;15182;48.174;11.562;2023-09-19T03:46:04;21.40;93.50
27803;DHT22;15182;48.174;11.562;2023-09-19T03:48:34;21.30;93.50
27803;DHT22;15182;48.174;11.562;2023-09-19T03:51:03;21.30;93.50
27803;DHT22;15182;48.174;11.562;2023-09-19T03:53:31;21.30;93.50
27803;DHT22;15182;48.174;11.562;2023-09-19T03:56:00;21.30;93.50
27803;DHT22;15182;48.174;11.562;2023-09-19T03:58:31;21.30;93.60
27803;DHT22;15182;48.174;11.562;2023-09-19T04:01:01;21.30;93.60
27803;DHT22;15182;48.174;11.562;2023-09-19T04:03:29;21.30;93.60
27803;DHT22;15182;48.174;11.562;2023-09-19T04:06:01;21.30;93.70
27803;DHT22;15182;48.174;11.562;2023-09-19T04:08:29;21.30;93.70
27803;DHT22;15182;48.174;11.562;2023-09-19T04:10:57;21.30;94.10
27803;DHT22;15182;48.174;11.562;2023-09-19T04:13:27;21.30;93.70
27803;DHT22;15182;48.174;11.562;2023-09-19T04:15:56;21.30;93.70
27803;DHT22;15182;48.174;11.562;2023-09-19T04:18:24;21.30;93.70
27803;DHT22;15182;48.174;11.562;2023-09-19T04:20:53;21.30;93.70
27803;DHT22;15182;48.174;11.562;2023-09-19T04:23:22;21.30;93.70
27803;DHT22;15182;48.174;11.562;2023-09-19T04:25:50;21.30;93.70
27803;DHT22;15182;48.174;11.562;2023-09-19T04:28:18;21.30;93.70
27803;DHT22;15182;48.174;11.562;2023-09-19T04:30:47;21.30;93.70
27803;DHT22;15182;48.174;11.562;2023-09-19T04:33:15;21.30;93.80
27803;DHT22;15182;48.174;11.562;2023-09-19T04:35:43;21.20;93.70
27803;DHT22;15182;48.174;11.562;2023-09-19T04:38:11;21.20;93.80
27803;DHT22;15182;48.174;11.562;2023-09-19T04:40:40;21.20;93.80
27803;DHT22;15182;48.174;11.562;2023-09-19T04:43:07;21.20;93.80
27803;DHT22;15182;48.174;11.562;2023-09-19T04:45:35;21.20;93.80
27803;DHT22;15182;48.174;11.562;2023-09-19T04:48:07;21.20;93.80
27803;DHT22;15182;48.174;11.562;2023-09-19T04:50:36;21.20;93.90
27803;DHT22;15182;48.174;11.562;2023-09-19T04:53:04;21.30;93.80
27803;DHT22;15182;48.174;11.562;2023-09-19T04:55:33;21.30;93.80
27803;DHT22;15182;48.174;11.562;2023-09-19T04:58:01;21.30;94.20
27803;DHT22;15182;48.174;11.562;2023-09-19T05:00:30;21.20;93.80
27803;DHT22;15182;48.174;11.562;2023-09-19T05:03:01;21.20;93.80
27803;DHT22;15182;48.174;11.562;2023-09-19T05:05:32;21.20;93.80
27803;DHT22;15182;48.174;11.562;2023-09-19T05:08:01;21.20;93.80
27803;DHT22;15182;48.174;11.562;2023-09-19T05:10:31;21.20;93.80
27803;DHT22;15182;48.174;11.562;2023-09-19T05:12:59;21.20;93.80
27803;DHT22;15182;48.174;11.562;2023-09-19T05:15:28;21.20;93.80
27803;DHT22;15182;48.174;11.562;2023-09-19T05:17:55;21.20;93.80
27803;DHT22;15182;48.174;11.562;2023-09-19T05:20:23;21.20;93.80
27803;DHT22;15182;48.174;11.562;2023-09-19T05:23:00;21.20;93.90
27803;DHT22;15182;48.174;11.562;2023-09-19T05:25:30;21.30;93.90
27803;DHT22;15182;48.174;11.562;2023-09-19T05:27:59;21.20;93.90
27803;DHT22;15182;48.174;11.562;2023-09-19T05:30:29;21.30;94.00
27803;DHT22;15182;48.174;11.562;2023-09-19T05:32:57;21.30;93.90
27803;DHT22;15182;48.174;11.562;2023-09-19T05:35:25;21.30;93.90
27803;DHT22;15182;48.174;11.562;2023-09-19T05:37:54;21.30;93.90
27803;DHT22;15182;48.174;11.562;2023-09-19T05:40:24;21.30;93.90
27803;DHT22;15182;48.174;11.562;2023-09-19T05:42:52;21.30;93.80
27803;DHT22;15182;48.174;11.562;2023-09-19T05:45:20;21.30;93.90
27803;DHT22;15182;48.174;11.562;2023-09-19T05:47:49;21.30;93.80
27803;DHT22;15182;48.174;11.562;2023-09-19T05:50:17;21.20;93.80
27803;DHT22;15182;48.174;11.562;2023-09-19T05:52:51;21.20;93.80
27803;DHT22;15182;48.174;11.562;2023-09-19T05:55:19;21.20;93.80
27803;DHT22;15182;48.174;11.562;2023-09-19T05:57:52;21.20;93.70
27803;DHT22;15182;48.174;11.562;2023-09-19T06:00:21;21.20;93.80
27803;DHT22;15182;48.174;11.562;2023-09-19T06:02:51;21.20;93.80
27803;DHT22;15182;48.174;11.562;2023-09-19T06:05:20;21.20;93.80
27803;DHT22;15182;48.174;11.562;2023-09-19T06:07:48;21.20;93.90
27803;DHT22;15182;48.174;11.562;2023-09-19T06:10:16;21.20;93.90
27803;DHT22;15182;48.174;11.562;2023-09-19T06:12:45;21.20;94.00
27803;DHT22;15182;48.174;11.562;2023-09-19T06:15:15;21.20;93.90
27803;DHT22;15182;48.174;11.562;2023-09-19T06:17:47;21.30;93.90
27803;DHT22;15182;48.174;11.562;2023-09-19T06:20:16;21.30;93.90
27803;DHT22;15182;48.174;11.562;2023-09-19T06:22:45;21.30;93.90
27803;DHT22;15182;48.174;11.562;2023-09-19T06:25:14;21.30;93.90
27803;DHT22;15182;48.174;11.562;2023-09-19T06:27:45;21.30;93.90
27803;DHT22;15182;48.174;11.562;2023-09-19T06:30:15;21.30;93.90
27803;DHT22;15182;48.174;11.562;2023-09-19T06:32:44;21.40;93.90
27803;DHT22;15182;48.174;11.562;2023-09-19T06:35:12;21.40;93.80
27803;DHT22;15182;48.174;11.562;2023-09-19T06:37:43;21.40;93.80
27803;DHT22;15182;48.174;11.562;2023-09-19T06:40:11;21.40;93.90
27803;DHT22;15182;48.174;11.562;2023-09-19T06:42:41;21.40;93.80
27803;DHT22;15182;48.174;11.562;2023-09-19T06:45:11;21.40;93.80
27803;DHT22;15182;48.174;11.562;2023-09-19T06:47:41;21.40;93.80
27803;DHT22;15182;48.174;11.562;2023-09-19T06:50:09;21.40;93.70
27803;DHT22;15182;48.174;11.562;2023-09-19T06:52:40;21.50;93.80
27803;DHT22;15182;48.174;11.562;2023-09-19T06:55:08;21.50;93.80
27803;DHT22;15182;48.174;11.562;2023-09-19T06:57:38;21.50;93.90
27803;DHT22;15182;48.174;11.562;2023-09-19T07:00:07;21.50;94.20
27803;DHT22;15182;48.174;11.562;2023-09-19T07:02:43;21.50;93.80
27803;DHT22;15182;48.174;11.562;2023-09-19T07:05:11;21.60;93.90
27803;DHT22;15182;48.174;11.562;2023-09-19T07:07:39;21.60;94.30
27803;DHT22;15182;48.174;11.562;2023-09-19T07:10:07;21.60;94.00
27803;DHT22;15182;48.174;11.562;2023-09-19T07:12:37;21.60;93.80
27803;DHT22;15182;48.174;11.562;2023-09-19T07:15:06;21.70;93.80
27803;DHT22;15182;48.174;11.562;2023-09-19T07:17:34;21.70;93.70
27803;DHT22;15182;48.174;11.562;2023-09-19T07:20:05;21.70;93.70
27803;DHT22;15182;48.174;11.562;2023-09-19T07:22:34;21.70;93.70
27803;DHT22;15182;48.174;11.562;2023-09-19T07:25:02;21.70;93.70
27803;DHT22;15182;48.174;11.562;2023-09-19T07:27:31;21.70;93.70
27803;DHT22;15182;48.174;11.562;2023-09-19T07:29:58;21.80;93.80
27803;DHT22;15182;48.174;11.562;2023-09-19T07:32:26;21.80;93.70
27803;DHT22;15182;48.174;11.562;2023-09-19T07:34:54;21.80;93.80
27803;DHT22;15182;48.174;11.562;2023-09-19T07:37:23;21.80;93.80
27803;DHT22;15182;48.174;11.562;2023-09-19T07:39:52;21.90;93.80
27803;DHT22;15182;48.174;11.562;2023-09-19T07:42:20;21.90;93.80
27803;DHT22;15182;48.174;11.562;2023-09-19T07:44:48;22.00;93.90
27803;DHT22;15182;48.174;11.562;2023-09-19T07:47:17;22.00;93.80
27803;DHT22;15182;48.174;11.562;2023-09-19T07:49:46;22.00;93.70
27803;DHT22;15182;48.174;11.562;2023-09-19T07:52:14;22.00;93.70
27803;DHT22;15182;48.174;11.562;2023-09-19T07:54:44;22.10;93.60
27803;DHT22;15182;48.174;11.562;2023-09-19T07:57:13;22.10;93.60
27803;DHT22;15182;48.174;11.562;2023-09-19T07:59:42;22.10;93.70
27803;DHT22;15182;48.174;11.562;2023-09-19T08:02:10;22.10;93.80
27803;DHT22;15182;48.174;11.562;2023-09-19T08:04:42;22.10;93.90
27803;DHT22;15182;48.174;11.562;2023-09-19T08:07:12;22.20;93.90
27803;DHT22;15182;48.174;11.562;2023-09-19T08:09:40;22.20;93.90
27803;DHT22;15182;48.174;11.562;2023-09-19T08:12:14;22.30;94.10
27803;DHT22;15182;48.174;11.562;2023-09-19T08:14:41;22.30;93.90
27803;DHT22;15182;48.174;11.562;2023-09-19T08:17:09;22.40;93.90
27803;DHT22;15182;48.174;11.562;2023-09-19T08:19:39;22.40;93.80
27803;DHT22;15182;48.174;11.562;2023-09-19T08:22:08;22.40;93.60
27803;DHT22;15182;48.174;11.562;2023-09-19T08:24:37;22.50;93.60
27803;DHT22;15182;48.174;11.562;2023-09-19T08:27:05;22.50;93.50
27803;DHT22;15182;48.174;11.562;2023-09-19T08:29:37;22.50;93.50
27803;DHT22;15182;48.174;11.562;2023-09-19T08:32:05;22.50;93.50
27803;DHT22;15182;48.174;11.562;2023-09-19T08:34:33;22.50;93.90
27803;DHT22;15182;48.174;11.562;2023-09-19T08:37:01;22.60;93.50
27803;DHT22;15182;48.174;11.562;2023-09-19T08:39:30;22.60;93.50
27803;DHT22;15182;48.174;11.562;2023-09-19T08:42:00;22.60;93.50
27803;DHT22;15182;48.174;11.562;2023-09-19T08:44:28;22.70;93.50
27803;DHT22;15182;48.174;11.562;2023-09-19T08:47:08;22.70;93.70
27803;DHT22;15182;48.174;11.562;2023-09-19T08:49:44;22.80;93.20
27803;DHT22;15182;48.174;11.562;2023-09-19T08:52:20;22.80;93.10
27803;DHT22;15182;48.174;11.562;2023-09-19T08:54:52;22.90;93.00
27803;DHT22;15182;48.174;11.562;2023-09-19T08:57:28;22.90;93.00
27803;DHT22;15182;48.174;11.562;2023-09-19T08:59:57;23.00;93.00
27803;DHT22;15182;48.174;11.562;2023-09-19T09:02:27;23.10;93.00
27803;DHT22;15182;48.174;11.562;2023-09-19T09:04:57;23.10;92.90
27803;DHT22;15182;48.174;11.562;2023-09-19T09:07:25;23.20;92.80
27803;DHT22;15182;48.174;11.562;2023-09-19T09:09:55;23.30;93.00
27803;DHT22;15182;48.174;11.562;2023-09-19T09:12:23;23.30;92.60
27803;DHT22;15182;48.174;11.562;2023-09-19T09:14:52;23.30;92.50
27803;DHT22;15182;48.174;11.562;2023-09-19T09:17:19;23.40;92.30
27803;DHT22;15182;48.174;11.562;2023-09-19T09:19:49;23.40;92.10
27803;DHT22;15182;48.174;11.562;2023-09-19T09:22:18;23.40;91.90
27803;DHT22;15182;48.174;11.562;2023-09-19T09:24:54;23.50;92.00
27803;DHT22;15182;48.174;11.562;2023-09-19T09:27:24;23.50;91.70
27803;DHT22;15182;48.174;11.562;2023-09-19T09:29:53;23.60;91.60
27803;DHT22;15182;48.174;11.562;2023-09-19T09:32:23;23.60;91.50
27803;DHT22;15182;48.174;11.562;2023-09-19T09:34:55;23.70;91.50
27803;DHT22;15182;48.174;11.562;2023-09-19T09:37:24;23.70;91.60
27803;DHT22;15182;48.174;11.562;2023-09-19T09:39:54;23.80;91.60
27803;DHT22;15182;48.174;11.562;2023-09-19T09:42:30;23.90;91.60
27803;DHT22;15182;48.174;11.562;2023-09-19T09:45:16;23.90;91.40
27803;DHT22;15182;48.174;11.562;2023-09-19T09:47:47;24.00;90.70
27803;DHT22;15182;48.174;11.562;2023-09-19T09:50:30;24.00;90.90
27803;DHT22;15182;48.174;11.562;2023-09-19T09:53:20;24.00;90.40
27803;DHT22;15182;48.174;11.562;2023-09-19T09:55:59;24.00;90.30
27803;DHT22;15182;48.174;11.562;2023-09-19T09:58:28;24.00;90.10
27803;DHT22;15182;48.174;11.562;2023-09-19T10:00:58;23.90;90.40
27803;DHT22;15182;48.174;11.562;2023-09-19T10:03:33;23.90;90.20
27803;DHT22;15182;48.174;11.562;2023-09-19T10:06:12;23.80;90.00
27803;DHT22;15182;48.174;11.562;2023-09-19T10:09:03;23.80;90.10
27803;DHT22;15182;48.174;11.562;2023-09-19T10:11:41;23.80;90.20
27803;DHT22;15182;48.174;11.562;2023-09-19T10:14:12;23.90;90.60
27803;DHT22;15182;48.174;11.562;2023-09-19T10:16:45;24.00;90.20
27803;DHT22;15182;48.174;11.562;2023-09-19T10:19:22;24.10;90.20
27803;DHT22;15182;48.174;11.562;2023-09-19T10:21:54;24.20;89.10
27803;DHT22;15182;48.174;11.562;2023-09-19T10:24:23;24.30;89.20
27803;DHT22;15182;48.174;11.562;2023-09-19T10:26:53;24.40;89.20
27803;DHT22;15182;48.174;11.562;2023-09-19T10:29:21;24.50;88.80
27803;DHT22;15182;48.174;11.562;2023-09-19T10:31:53;24.60;88.60
27803;DHT22;15182;48.174;11.562;2023-09-19T10:34:22;24.70;88.10
27803;DHT22;15182;48.174;11.562;2023-09-19T10:36:52;24.80;87.40
27803;DHT22;15182;48.174;11.562;2023-09-19T10:39:21;24.90;86.90
27803;DHT22;15182;48.174;11.562;2023-09-19T10:41:51;24.90;88.00
27803;DHT22;15182;48.174;11.562;2023-09-19T10:44:24;24.90;86.80
27803;DHT22;15182;48.174;11.562;2023-09-19T10:46:53;25.00;86.50
27803;DHT22;15182;48.174;11.562;2023-09-19T10:49:21;25.00;86.40
27803;DHT22;15182;48.174;11.562;2023-09-19T10:51:54;25.00;86.40
27803;DHT22;15182;48.174;11.562;2023-09-19T10:54:27;25.10;86.00
27803;DHT22;15182;48.174;11.562;2023-09-19T10:56:59;25.20;86.20
27803;DHT22;15182;48.174;11.562;2023-09-19T10:59:31;25.30;86.90
27803;DHT22;15182;48.174;11.562;2023-09-19T11:02:16;25.50;87.20
27803;DHT22;15182;48.174;11.562;2023-09-19T11:04:44;25.60;86.10
27803;DHT22;15182;48.174;11.562;2023-09-19T11:07:16;25.80;85.60
27803;DHT22;15182;48.174;11.562;2023-09-19T11:09:48;26.00;85.80
27803;DHT22;15182;48.174;11.562;2023-09-19T11:12:47;26.10;84.40
27803;DHT22;15182;48.174;11.562;2023-09-19T11:18:52;26.40;84.40
27803;DHT22;15182;48.174;11.562;2023-09-19T11:21:51;26.50;83.50
27803;DHT22;15182;48.174;11.562;2023-09-19T11:24:31;26.60;82.50
27803;DHT22;15182;48.174;11.562;2023-09-19T11:27:13;26.70;81.00
27803;DHT22;15182;48.174;11.562;2023-09-19T11:29:44;26.70;79.80
27803;DHT22;15182;48.174;11.562;2023-09-19T11:32:13;26.60;80.40
27803;DHT22;15182;48.174;11.562;2023-09-19T11:34:48;26.60;79.70
27803;DHT22;15182;48.174;11.562;2023-09-19T11:40:34;26.40;78.80
27803;DHT22;15182;48.174;11.562;2023-09-19T11:43:30;26.40;80.90
27803;DHT22;15182;48.174;11.562;2023-09-19T11:46:04;26.40;79.40
27803;DHT22;15182;48.174;11.562;2023-09-19T11:48:33;26.40;79.70
27803;DHT22;15182;48.174;11.562;2023-09-19T11:51:17;26.50;79.60
27803;DHT22;15182;48.174;11.562;2023-09-19T11:53:49;26.60;78.50
27803;DHT22;15182;48.174;11.562;2023-09-19T11:56:21;26.60;77.90
27803;DHT22;15182;48.174;11.562;2023-09-19T11:58:51;26.60;77.00
27803;DHT22;15182;48.174;11.562;2023-09-19T12:01:27;26.50;77.40
27803;DHT22;15182;48.174;11.562;2023-09-19T12:03:59;26.40;77.30
27803;DHT22;15182;48.174;11.562;2023-09-19T12:06:29;26.40;78.70
27803;DHT22;15182;48.174;11.562;2023-09-19T12:08:59;26.40;79.00
27803;DHT22;15182;48.174;11.562;2023-09-19T12:11:30;26.50;79.00
27803;DHT22;15182;48.174;11.562;2023-09-19T12:14:01;26.60;78.50
27803;DHT22;15182;48.174;11.562;2023-09-19T12:16:31;26.70;78.60
27803;DHT22;15182;48.174;11.562;2023-09-19T12:19:17;26.70;78.00
27803;DHT22;15182;48.174;11.562;2023-09-19T12:21:55;26.80;77.10
27803;DHT22;15182;48.174;11.562;2023-09-19T12:24:26;26.70;77.40
27803;DHT22;15182;48.174;11.562;2023-09-19T12:27:02;26.70;78.20
27803;DHT22;15182;48.174;11.562;2023-09-19T12:29:32;26.70;77.60
27803;DHT22;15182;48.174;11.562;2023-09-19T12:32:10;26.80;77.60
27803;DHT22;15182;48.174;11.562;2023-09-19T12:34:39;26.80;76.70
27803;DHT22;15182;48.174;11.562;2023-09-19T12:37:10;26.80;76.30
27803;DHT22;15182;48.174;11.562;2023-09-19T12:39:39;26.80;76.20
27803;DHT22;15182;48.174;11.562;2023-09-19T12:42:11;26.80;76.60
27803;DHT22;15182;48.174;11.562;2023-09-19T12:44:42;26.70;76.10
27803;DHT22;15182;48.174;11.562;2023-09-19T12:47:12;26.70;76.30
27803;DHT22;15182;48.174;11.562;2023-09-19T12:50:05;26.60;76.20
27803;DHT22;15182;48.174;11.562;2023-09-19T12:52:40;26.50;76.10
27803;DHT22;15182;48.174;11.562;2023-09-19T12:55:18;26.40;76.30
27803;DHT22;15182;48.174;11.562;2023-09-19T12:58:02;26.30;76.30
27803;DHT22;15182;48.174;11.562;2023-09-19T13:00:37;26.20;76.50
27803;DHT22;15182;48.174;11.562;2023-09-19T13:03:15;26.10;77.80
27803;DHT22;15182;48.174;11.562;2023-09-19T13:05:54;26.00;78.30
27803;DHT22;15182;48.174;11.562;2023-09-19T13:08:26;25.90;79.00
27803;DHT22;15182;48.174;11.562;2023-09-19T13:11:05;25.80;79.30
27803;DHT22;15182;48.174;11.562;2023-09-19T13:13:38;25.80;79.70
27803;DHT22;15182;48.174;11.562;2023-09-19T13:16:07;25.70;80.20
27803;DHT22;15182;48.174;11.562;2023-09-19T13:18:43;25.70;80.70
27803;DHT22;15182;48.174;11.562;2023-09-19T13:21:13;25.80;80.60
27803;DHT22;15182;48.174;11.562;2023-09-19T13:23:51;25.90;80.80
27803;DHT22;15182;48.174;11.562;2023-09-19T13:26:19;26.10;80.90
27803;DHT22;15182;48.174;11.562;2023-09-19T13:28:48;26.20;81.00
27803;DHT22;15182;48.174;11.562;2023-09-19T13:31:16;26.40;80.30
27803;DHT22;15182;48.174;11.562;2023-09-19T13:33:45;26.50;80.00
27803;DHT22;15182;48.174;11.562;2023-09-19T13:36:14;26.70;79.90
27803;DHT22;15182;48.174;11.562;2023-09-19T13:38:45;26.80;79.20
27803;DHT22;15182;48.174;11.562;2023-09-19T13:41:15;26.90;78.90
27803;DHT22;15182;48.174;11.562;2023-09-19T13:43:43;27.00;78.60
27803;DHT22;15182;48.174;11.562;2023-09-19T13:46:15;27.10;78.80
27803;DHT22;15182;48.174;11.562;2023-09-19T13:48:51;27.10;78.20
27803;DHT22;15182;48.174;11.562;2023-09-19T13:51:21;27.20;77.40
27803;DHT22;15182;48.174;11.562;2023-09-19T13:53:50;27.20;77.30
27803;DHT22;15182;48.174;11.562;2023-09-19T13:56:17;27.20;77.40
27803;DHT22;15182;48.174;11.562;2023-09-19T13:58:45;27.20;77.50
27803;DHT22;15182;48.174;11.562;2023-09-19T14:01:14;27.10;77.40
27803;DHT22;15182;48.174;11.562;2023-09-19T14:03:42;27.10;77.50
27803;DHT22;15182;48.174;11.562;2023-09-19T14:06:12;27.10;78.00
27803;DHT22;15182;48.174;11.562;2023-09-19T14:08:40;27.10;77.60
27803;DHT22;15182;48.174;11.562;2023-09-19T14:11:08;27.10;76.60
27803;DHT22;15182;48.174;11.562;2023-09-19T14:13:37;27.10;76.50
27803;DHT22;15182;48.174;11.562;2023-09-19T14:16:05;27.10;76.90
27803;DHT22;15182;48.174;11.562;2023-09-19T14:18:36;27.10;77.00
27803;DHT22;15182;48.174;11.562;2023-09-19T14:21:04;27.10;77.30
27803;DHT22;15182;48.174;11.562;2023-09-19T14:23:35;27.10;77.50
27803;DHT22;15182;48.174;11.562;2023-09-19T14:26:03;27.10;76.60
27803;DHT22;15182;48.174;11.562;2023-09-19T14:28:32;27.10;76.40
27803;DHT22;15182;48.174;11.562;2023-09-19T14:31:05;27.00;76.20
27803;DHT22;15182;48.174;11.562;2023-09-19T14:33:33;27.00;75.90
27803;DHT22;15182;48.174;11.562;2023-09-19T14:36:04;27.00;76.40
27803;DHT22;15182;48.174;11.562;2023-09-19T14:38:33;26.90;76.20
27803;DHT22;15182;48.174;11.562;2023-09-19T14:41:01;26.80;76.20
27803;DHT22;15182;48.174;11.562;2023-09-19T14:43:30;26.80;76.40
27803;DHT22;15182;48.174;11.562;2023-09-19T14:46:02;26.70;75.90
27803;DHT22;15182;48.174;11.562;2023-09-19T14:48:30;26.60;75.70
27803;DHT22;15182;48.174;11.562;2023-09-19T14:51:03;26.60;76.00
27803;DHT22;15182;48.174;11.562;2023-09-19T14:53:31;26.50;76.10
27803;DHT22;15182;48.174;11.562;2023-09-19T14:56:00;26.40;76.20
27803;DHT22;15182;48.174;11.562;2023-09-19T14:58:29;26.40;76.00
27803;DHT22;15182;48.174;11.562;2023-09-19T15:01:03;26.40;77.00
27803;DHT22;15182;48.174;11.562;2023-09-19T15:03:32;26.30;76.10
27803;DHT22;15182;48.174;11.562;2023-09-19T15:06:01;26.30;76.50
27803;DHT22;15182;48.174;11.562;2023-09-19T15:08:32;26.20;76.50
27803;DHT22;15182;48.174;11.562;2023-09-19T15:11:01;26.10;76.50
27803;DHT22;15182;48.174;11.562;2023-09-19T15:13:33;26.10;76.50
27803;DHT22;15182;48.174;11.562;2023-09-19T15:16:02;26.10;76.60
27803;DHT22;15182;48.174;11.562;2023-09-19T15:18:31;26.10;76.20
27803;DHT22;15182;48.174;11.562;2023-09-19T15:21:00;26.00;76.10
27803;DHT22;15182;48.174;11.562;2023-09-19T15:23:29;26.00;75.80
27803;DHT22;15182;48.174;11.562;2023-09-19T15:25:58;25.90;75.30
27803;DHT22;15182;48.174;11.562;2023-09-19T15:28:27;25.90;75.60
27803;DHT22;15182;48.174;11.562;2023-09-19T15:31:00;25.90;75.70
27803;DHT22;15182;48.174;11.562;2023-09-19T15:33:29;25.80;75.60
27803;DHT22;15182;48.174;11.562;2023-09-19T15:36:02;25.80;75.90
27803;DHT22;15182;48.174;11.562;2023-09-19T15:38:31;25.80;75.50
27803;DHT22;15182;48.174;11.562;2023-09-19T15:41:02;25.80;76.20
27803;DHT22;15182;48.174;11.562;2023-09-19T15:43:30;25.70;76.10
27803;DHT22;15182;48.174;11.562;2023-09-19T15:46:00;25.70;75.80
27803;DHT22;15182;48.174;11.562;2023-09-19T15:48:29;25.70;76.60